sensor_id;sensor_type;location;lat;lon;timestamp;P1;durP1;ratioP1;P2;durP2;ratioP2
19778;SDS011;10049;59.306;18.090;2023-07-20T00:02:09;0.30;;;0.30;;
19778;SDS011;10049;59.306;18.090;2023-07-20T00:04:37;1.02;;;0.30;;
19778;SDS011;10049;59.306;18.090;2023-07-20T00:07:05;0.50;;;0.40;;
19778;SDS011;10049;59.306;18.090;2023-07-20T00:09:34;0.50;;;0.30;;
19778;SDS011;10049;59.306;18.090;2023-07-20T00:12:02;0.20;;;0.20;;
19778;SDS011;10049;59.306;18.090;2023-07-20T00:14:33;0.50;;;0.30;;
19778;SDS011;10049;59.306;18.090;2023-07-20T00:17:02;1.40;;;0.38;;
19778;SDS011;10049;59.306;18.090;2023-07-20T00:19:30;0.40;;;0.40;;
19778;SDS011;10049;59.306;18.090;2023-07-20T00:22:00;0.95;;;0.40;;
19778;SDS011;10049;59.306;18.090;2023-07-20T00:24:30;1.00;;;0.40;;
19778;SDS011;10049;59.306;18.090;2023-07-20T00:27:01;0.93;;;0.43;;
19778;SDS011;10049;59.306;18.090;2023-07-20T00:29:30;1.08;;;0.60;;
19778;SDS011;10049;59.306;18.090;2023-07-20T00:32:00;2.47;;;0.57;;
19778;SDS011;10049;59.306;18.090;2023-07-20T00:34:32;3.83;;;0.60;;
19778;SDS011;10049;59.306;18.090;2023-07-20T00:37:02;1.48;;;0.45;;
19778;SDS011;10049;59.306;18.090;2023-07-20T00:39:30;0.90;;;0.40;;
19778;SDS011;10049;59.306;18.090;2023-07-20T00:42:06;0.80;;;0.40;;
19778;SDS011;10049;59.306;18.090;2023-07-20T00:44:33;0.82;;;0.47;;
19778;SDS011;10049;59.306;18.090;2023-07-20T00:47:01;0.50;;;0.50;;
19778;SDS011;10049;59.306;18.090;2023-07-20T00:49:34;2.28;;;0.50;;
19778;SDS011;10049;59.306;18.090;2023-07-20T00:52:02;2.45;;;0.50;;
19778;SDS011;10049;59.306;18.090;2023-07-20T00:54:35;2.13;;;0.60;;
19778;SDS011;10049;59.306;18.090;2023-07-20T00:57:11;1.75;;;0.40;;
19778;SDS011;10049;59.306;18.090;2023-07-20T00:59:42;1.23;;;0.40;;
19778;SDS011;10049;59.306;18.090;2023-07-20T01:02:14;1.55;;;0.45;;
19778;SDS011;10049;59.306;18.090;2023-07-20T01:04:42;0.30;;;0.30;;
19778;SDS011;10049;59.306;18.090;2023-07-20T01:07:11;0.93;;;0.50;;
19778;SDS011;10049;59.306;18.090;2023-07-20T01:09:43;1.80;;;0.50;;
19778;SDS011;10049;59.306;18.090;2023-07-20T01:12:15;1.50;;;0.55;;
19778;SDS011;10049;59.306;18.090;2023-07-20T01:14:51;0.90;;;0.57;;
19778;SDS011;10049;59.306;18.090;2023-07-20T01:17:21;1.98;;;0.50;;
19778;SDS011;10049;59.306;18.090;2023-07-20T01:19:49;0.90;;;0.43;;
19778;SDS011;10049;59.306;18.090;2023-07-20T01:22:21;4.82;;;0.63;;
19778;SDS011;10049;59.306;18.090;2023-07-20T01:25:04;2.75;;;0.50;;
19778;SDS011;10049;59.306;18.090;2023-07-20T01:33:19;0.52;;;0.40;;
19778;SDS011;10049;59.306;18.090;2023-07-20T01:35:53;0.68;;;0.47;;
19778;SDS011;10049;59.306;18.090;2023-07-20T01:38:22;3.13;;;0.60;;
19778;SDS011;10049;59.306;18.090;2023-07-20T01:40:52;2.80;;;0.60;;
19778;SDS011;10049;59.306;18.090;2023-07-20T01:43:20;1.58;;;0.60;;
19778;SDS011;10049;59.306;18.090;2023-07-20T01:45:49;4.30;;;0.70;;
19778;SDS011;10049;59.306;18.090;2023-07-20T01:48:19;2.38;;;0.40;;
19778;SDS011;10049;59.306;18.090;2023-07-20T01:50:46;2.40;;;0.50;;
19778;SDS011;10049;59.306;18.090;2023-07-20T01:53:14;1.95;;;0.40;;
19778;SDS011;10049;59.306;18.090;2023-07-20T01:55:42;2.55;;;0.70;;
19778;SDS011;10049;59.306;18.090;2023-07-20T01:58:12;3.15;;;0.82;;
19778;SDS011;10049;59.306;18.090;2023-07-20T02:00:43;1.83;;;0.60;;
19778;SDS011;10049;59.306;18.090;2023-07-20T02:03:12;2.30;;;0.73;;
19778;SDS011;10049;59.306;18.090;2023-07-20T02:05:43;2.42;;;0.40;;
19778;SDS011;10049;59.306;18.090;2023-07-20T02:08:10;2.47;;;0.70;;
19778;SDS011;10049;59.306;18.090;2023-07-20T02:10:38;1.25;;;0.70;;
19778;SDS011;10049;59.306;18.090;2023-07-20T02:13:05;3.05;;;0.65;;
19778;SDS011;10049;59.306;18.090;2023-07-20T02:15:35;1.58;;;0.70;;
19778;SDS011;10049;59.306;18.090;2023-07-20T02:18:03;3.10;;;0.80;;
19778;SDS011;10049;59.306;18.090;2023-07-20T02:20:31;2.80;;;0.70;;
19778;SDS011;10049;59.306;18.090;2023-07-20T02:23:00;5.22;;;1.25;;
19778;SDS011;10049;59.306;18.090;2023-07-20T02:25:28;2.92;;;0.80;;
19778;SDS011;10049;59.306;18.090;2023-07-20T02:27:57;1.45;;;0.70;;
19778;SDS011;10049;59.306;18.090;2023-07-20T02:30:27;2.85;;;0.73;;
19778;SDS011;10049;59.306;18.090;2023-07-20T02:32:55;3.10;;;0.70;;
19778;SDS011;10049;59.306;18.090;2023-07-20T02:35:23;5.72;;;0.68;;
19778;SDS011;10049;59.306;18.090;2023-07-20T02:37:51;1.33;;;0.60;;
19778;SDS011;10049;59.306;18.090;2023-07-20T02:40:24;1.45;;;0.60;;
19778;SDS011;10049;59.306;18.090;2023-07-20T02:42:52;2.38;;;0.70;;
19778;SDS011;10049;59.306;18.090;2023-07-20T02:45:21;1.20;;;0.60;;
19778;SDS011;10049;59.306;18.090;2023-07-20T02:47:49;1.85;;;0.70;;
19778;SDS011;10049;59.306;18.090;2023-07-20T02:50:17;2.55;;;1.00;;
19778;SDS011;10049;59.306;18.090;2023-07-20T02:52:46;3.70;;;0.70;;
19778;SDS011;10049;59.306;18.090;2023-07-20T02:55:15;2.60;;;0.63;;
19778;SDS011;10049;59.306;18.090;2023-07-20T02:57:47;1.48;;;0.60;;
19778;SDS011;10049;59.306;18.090;2023-07-20T03:00:16;1.50;;;0.70;;
19778;SDS011;10049;59.306;18.090;2023-07-20T03:02:46;0.90;;;0.60;;
19778;SDS011;10049;59.306;18.090;2023-07-20T03:05:18;1.05;;;0.60;;
19778;SDS011;10049;59.306;18.090;2023-07-20T03:07:46;3.78;;;0.90;;
19778;SDS011;10049;59.306;18.090;2023-07-20T03:10:16;0.57;;;0.43;;
19778;SDS011;10049;59.306;18.090;2023-07-20T03:12:44;3.33;;;0.50;;
19778;SDS011;10049;59.306;18.090;2023-07-20T03:15:23;3.58;;;0.50;;
19778;SDS011;10049;59.306;18.090;2023-07-20T03:17:51;1.30;;;0.50;;
19778;SDS011;10049;59.306;18.090;2023-07-20T03:20:22;0.90;;;0.45;;
19778;SDS011;10049;59.306;18.090;2023-07-20T03:22:50;1.40;;;0.47;;
19778;SDS011;10049;59.306;18.090;2023-07-20T03:25:18;1.30;;;0.50;;
19778;SDS011;10049;59.306;18.090;2023-07-20T03:27:55;2.08;;;0.50;;
19778;SDS011;10049;59.306;18.090;2023-07-20T03:30:24;1.63;;;0.50;;
19778;SDS011;10049;59.306;18.090;2023-07-20T03:32:53;1.48;;;0.40;;
19778;SDS011;10049;59.306;18.090;2023-07-20T03:35:21;1.98;;;0.80;;
19778;SDS011;10049;59.306;18.090;2023-07-20T03:37:49;2.85;;;0.75;;
19778;SDS011;10049;59.306;18.090;2023-07-20T03:40:18;3.72;;;0.75;;
19778;SDS011;10049;59.306;18.090;2023-07-20T03:42:48;2.00;;;0.65;;
19778;SDS011;10049;59.306;18.090;2023-07-20T03:45:15;1.45;;;0.52;;
19778;SDS011;10049;59.306;18.090;2023-07-20T03:47:54;2.97;;;0.70;;
19778;SDS011;10049;59.306;18.090;2023-07-20T03:50:24;3.50;;;0.85;;
19778;SDS011;10049;59.306;18.090;2023-07-20T03:52:52;2.55;;;0.68;;
19778;SDS011;10049;59.306;18.090;2023-07-20T03:55:19;3.42;;;0.80;;
19778;SDS011;10049;59.306;18.090;2023-07-20T03:57:47;1.77;;;0.60;;
19778;SDS011;10049;59.306;18.090;2023-07-20T04:00:17;5.30;;;0.70;;
19778;SDS011;10049;59.306;18.090;2023-07-20T04:02:56;3.70;;;0.70;;
19778;SDS011;10049;59.306;18.090;2023-07-20T04:05:28;1.48;;;0.60;;
19778;SDS011;10049;59.306;18.090;2023-07-20T04:07:56;2.90;;;0.57;;
19778;SDS011;10049;59.306;18.090;2023-07-20T04:10:25;2.15;;;0.50;;
19778;SDS011;10049;59.306;18.090;2023-07-20T04:12:53;2.85;;;0.80;;
19778;SDS011;10049;59.306;18.090;2023-07-20T04:15:26;0.77;;;0.57;;
19778;SDS011;10049;59.306;18.090;2023-07-20T04:17:57;2.38;;;0.60;;
19778;SDS011;10049;59.306;18.090;2023-07-20T04:20:28;1.13;;;0.50;;
19778;SDS011;10049;59.306;18.090;2023-07-20T04:22:56;1.90;;;0.57;;
19778;SDS011;10049;59.306;18.090;2023-07-20T04:25:24;1.15;;;0.65;;
19778;SDS011;10049;59.306;18.090;2023-07-20T04:27:52;4.57;;;0.77;;
19778;SDS011;10049;59.306;18.090;2023-07-20T04:30:21;2.38;;;0.70;;
19778;SDS011;10049;59.306;18.090;2023-07-20T04:32:49;1.48;;;0.60;;
19778;SDS011;10049;59.306;18.090;2023-07-20T04:35:26;4.10;;;0.80;;
19778;SDS011;10049;59.306;18.090;2023-07-20T04:38:09;1.67;;;0.70;;
19778;SDS011;10049;59.306;18.090;2023-07-20T04:43:30;2.08;;;0.88;;
19778;SDS011;10049;59.306;18.090;2023-07-20T04:45:58;1.35;;;0.63;;
19778;SDS011;10049;59.306;18.090;2023-07-20T04:48:27;3.67;;;1.00;;
19778;SDS011;10049;59.306;18.090;2023-07-20T04:50:55;2.45;;;0.80;;
19778;SDS011;10049;59.306;18.090;2023-07-20T04:53:24;4.30;;;0.70;;
19778;SDS011;10049;59.306;18.090;2023-07-20T04:55:52;5.32;;;0.73;;
19778;SDS011;10049;59.306;18.090;2023-07-20T04:58:20;2.17;;;0.70;;
19778;SDS011;10049;59.306;18.090;2023-07-20T05:00:50;3.58;;;0.70;;
19778;SDS011;10049;59.306;18.090;2023-07-20T05:03:18;2.33;;;0.70;;
19778;SDS011;10049;59.306;18.090;2023-07-20T05:05:46;4.03;;;0.88;;
19778;SDS011;10049;59.306;18.090;2023-07-20T05:08:15;2.78;;;0.82;;
19778;SDS011;10049;59.306;18.090;2023-07-20T05:10:50;4.32;;;0.80;;
19778;SDS011;10049;59.306;18.090;2023-07-20T05:13:19;2.38;;;0.60;;
19778;SDS011;10049;59.306;18.090;2023-07-20T05:15:51;2.08;;;0.80;;
19778;SDS011;10049;59.306;18.090;2023-07-20T05:18:19;1.45;;;0.88;;
19778;SDS011;10049;59.306;18.090;2023-07-20T05:20:51;3.28;;;0.70;;
19778;SDS011;10049;59.306;18.090;2023-07-20T05:23:20;2.38;;;0.80;;
19778;SDS011;10049;59.306;18.090;2023-07-20T05:25:56;2.17;;;0.70;;
19778;SDS011;10049;59.306;18.090;2023-07-20T05:28:24;2.53;;;0.82;;
19778;SDS011;10049;59.306;18.090;2023-07-20T05:30:53;2.67;;;0.70;;
19778;SDS011;10049;59.306;18.090;2023-07-20T05:33:20;0.95;;;0.63;;
19778;SDS011;10049;59.306;18.090;2023-07-20T05:35:50;2.72;;;0.60;;
19778;SDS011;10049;59.306;18.090;2023-07-20T05:38:18;1.88;;;0.60;;
19778;SDS011;10049;59.306;18.090;2023-07-20T05:40:45;2.47;;;0.70;;
19778;SDS011;10049;59.306;18.090;2023-07-20T05:43:16;3.30;;;0.65;;
19778;SDS011;10049;59.306;18.090;2023-07-20T05:45:44;1.58;;;0.60;;
19778;SDS011;10049;59.306;18.090;2023-07-20T05:48:19;2.70;;;0.75;;
19778;SDS011;10049;59.306;18.090;2023-07-20T05:50:47;1.63;;;0.70;;
19778;SDS011;10049;59.306;18.090;2023-07-20T05:53:23;3.13;;;0.80;;
19778;SDS011;10049;59.306;18.090;2023-07-20T05:55:54;0.93;;;0.57;;
19778;SDS011;10049;59.306;18.090;2023-07-20T05:58:25;2.78;;;0.90;;
19778;SDS011;10049;59.306;18.090;2023-07-20T06:00:55;2.05;;;0.80;;
19778;SDS011;10049;59.306;18.090;2023-07-20T06:03:24;2.42;;;0.85;;
19778;SDS011;10049;59.306;18.090;2023-07-20T06:05:57;1.40;;;0.70;;
19778;SDS011;10049;59.306;18.090;2023-07-20T06:08:27;2.67;;;0.70;;
19778;SDS011;10049;59.306;18.090;2023-07-20T06:10:55;4.00;;;1.00;;
19778;SDS011;10049;59.306;18.090;2023-07-20T06:13:24;4.72;;;0.90;;
19778;SDS011;10049;59.306;18.090;2023-07-20T06:15:53;1.70;;;0.68;;
19778;SDS011;10049;59.306;18.090;2023-07-20T06:18:22;1.80;;;0.80;;
19778;SDS011;10049;59.306;18.090;2023-07-20T06:20:50;1.85;;;0.80;;
19778;SDS011;10049;59.306;18.090;2023-07-20T06:23:18;1.88;;;0.80;;
19778;SDS011;10049;59.306;18.090;2023-07-20T06:25:47;1.63;;;0.80;;
19778;SDS011;10049;59.306;18.090;2023-07-20T06:28:16;1.30;;;0.60;;
19778;SDS011;10049;59.306;18.090;2023-07-20T06:30:46;1.13;;;0.57;;
19778;SDS011;10049;59.306;18.090;2023-07-20T06:33:14;2.60;;;0.65;;
19778;SDS011;10049;59.306;18.090;2023-07-20T06:35:42;2.22;;;0.70;;
19778;SDS011;10049;59.306;18.090;2023-07-20T06:38:11;2.70;;;0.75;;
19778;SDS011;10049;59.306;18.090;2023-07-20T06:40:39;5.68;;;0.88;;
19778;SDS011;10049;59.306;18.090;2023-07-20T06:43:07;3.15;;;0.80;;
19778;SDS011;10049;59.306;18.090;2023-07-20T06:45:35;2.45;;;0.88;;
19778;SDS011;10049;59.306;18.090;2023-07-20T06:48:07;0.80;;;0.70;;
19778;SDS011;10049;59.306;18.090;2023-07-20T06:50:35;4.78;;;0.98;;
19778;SDS011;10049;59.306;18.090;2023-07-20T06:53:09;4.57;;;0.93;;
19778;SDS011;10049;59.306;18.090;2023-07-20T06:55:41;1.85;;;0.70;;
19778;SDS011;10049;59.306;18.090;2023-07-20T06:58:09;1.80;;;0.70;;
19778;SDS011;10049;59.306;18.090;2023-07-20T07:00:37;2.10;;;0.70;;
19778;SDS011;10049;59.306;18.090;2023-07-20T07:03:14;1.48;;;0.60;;
19778;SDS011;10049;59.306;18.090;2023-07-20T07:05:42;3.17;;;0.60;;
19778;SDS011;10049;59.306;18.090;2023-07-20T07:08:10;1.77;;;0.70;;
19778;SDS011;10049;59.306;18.090;2023-07-20T07:10:39;4.00;;;0.65;;
19778;SDS011;10049;59.306;18.090;2023-07-20T07:13:07;1.63;;;0.50;;
19778;SDS011;10049;59.306;18.090;2023-07-20T07:15:34;2.25;;;0.70;;
19778;SDS011;10049;59.306;18.090;2023-07-20T07:18:02;1.80;;;0.65;;
19778;SDS011;10049;59.306;18.090;2023-07-20T07:20:33;1.83;;;0.52;;
19778;SDS011;10049;59.306;18.090;2023-07-20T07:23:01;2.05;;;0.70;;
19778;SDS011;10049;59.306;18.090;2023-07-20T07:25:29;1.77;;;0.80;;
19778;SDS011;10049;59.306;18.090;2023-07-20T07:27:57;2.50;;;0.63;;
19778;SDS011;10049;59.306;18.090;2023-07-20T07:30:26;1.75;;;0.80;;
19778;SDS011;10049;59.306;18.090;2023-07-20T07:32:57;0.90;;;0.50;;
19778;SDS011;10049;59.306;18.090;2023-07-20T07:35:25;2.22;;;0.70;;
19778;SDS011;10049;59.306;18.090;2023-07-20T07:38:00;1.10;;;0.77;;
19778;SDS011;10049;59.306;18.090;2023-07-20T07:40:28;1.83;;;0.57;;
19778;SDS011;10049;59.306;18.090;2023-07-20T07:42:59;1.27;;;0.50;;
19778;SDS011;10049;59.306;18.090;2023-07-20T07:45:29;1.52;;;0.60;;
19778;SDS011;10049;59.306;18.090;2023-07-20T07:47:57;4.03;;;0.70;;
19778;SDS011;10049;59.306;18.090;2023-07-20T07:50:25;1.15;;;0.60;;
19778;SDS011;10049;59.306;18.090;2023-07-20T07:52:54;1.33;;;0.60;;
19778;SDS011;10049;59.306;18.090;2023-07-20T07:55:23;1.27;;;0.60;;
19778;SDS011;10049;59.306;18.090;2023-07-20T07:57:54;2.58;;;0.70;;
19778;SDS011;10049;59.306;18.090;2023-07-20T08:00:25;4.35;;;0.60;;
19778;SDS011;10049;59.306;18.090;2023-07-20T08:02:54;1.33;;;0.50;;
19778;SDS011;10049;59.306;18.090;2023-07-20T08:05:23;0.50;;;0.50;;
19778;SDS011;10049;59.306;18.090;2023-07-20T08:07:53;1.02;;;0.65;;
19778;SDS011;10049;59.306;18.090;2023-07-20T08:10:23;1.40;;;0.77;;
19778;SDS011;10049;59.306;18.090;2023-07-20T08:12:53;0.82;;;0.40;;
19778;SDS011;10049;59.306;18.090;2023-07-20T08:15:24;1.02;;;0.55;;
19778;SDS011;10049;59.306;18.090;2023-07-20T08:17:53;1.17;;;0.50;;
19778;SDS011;10049;59.306;18.090;2023-07-20T08:20:25;1.40;;;0.40;;
19778;SDS011;10049;59.306;18.090;2023-07-20T08:22:57;0.85;;;0.40;;
19778;SDS011;10049;59.306;18.090;2023-07-20T08:25:27;0.68;;;0.40;;
19778;SDS011;10049;59.306;18.090;2023-07-20T08:27:57;1.23;;;0.40;;
19778;SDS011;10049;59.306;18.090;2023-07-20T08:30:38;1.13;;;0.43;;
19778;SDS011;10049;59.306;18.090;2023-07-20T08:33:07;1.50;;;0.40;;
19778;SDS011;10049;59.306;18.090;2023-07-20T08:35:37;0.85;;;0.20;;
19778;SDS011;10049;59.306;18.090;2023-07-20T08:38:05;2.38;;;0.40;;
19778;SDS011;10049;59.306;18.090;2023-07-20T08:40:40;0.60;;;0.35;;
19778;SDS011;10049;59.306;18.090;2023-07-20T08:43:08;2.40;;;0.57;;
19778;SDS011;10049;59.306;18.090;2023-07-20T08:45:43;1.02;;;0.50;;
19778;SDS011;10049;59.306;18.090;2023-07-20T08:48:18;1.42;;;0.60;;
19778;SDS011;10049;59.306;18.090;2023-07-20T08:50:51;0.73;;;0.38;;
19778;SDS011;10049;59.306;18.090;2023-07-20T08:53:22;1.05;;;0.60;;
19778;SDS011;10049;59.306;18.090;2023-07-20T08:55:55;1.83;;;0.50;;
19778;SDS011;10049;59.306;18.090;2023-07-20T08:58:24;1.00;;;0.57;;
19778;SDS011;10049;59.306;18.090;2023-07-20T09:00:55;1.30;;;0.52;;
19778;SDS011;10049;59.306;18.090;2023-07-20T09:03:27;0.52;;;0.50;;
19778;SDS011;10049;59.306;18.090;2023-07-20T09:05:55;1.73;;;0.73;;
19778;SDS011;10049;59.306;18.090;2023-07-20T09:08:23;1.35;;;0.60;;
19778;SDS011;10049;59.306;18.090;2023-07-20T09:10:55;5.30;;;0.75;;
19778;SDS011;10049;59.306;18.090;2023-07-20T09:13:24;0.88;;;0.57;;
19778;SDS011;10049;59.306;18.090;2023-07-20T09:15:55;0.77;;;0.50;;
19778;SDS011;10049;59.306;18.090;2023-07-20T09:18:23;0.43;;;0.43;;
19778;SDS011;10049;59.306;18.090;2023-07-20T09:20:52;2.03;;;0.47;;
19778;SDS011;10049;59.306;18.090;2023-07-20T09:23:29;1.27;;;0.65;;
19778;SDS011;10049;59.306;18.090;2023-07-20T09:26:01;2.65;;;0.50;;
19778;SDS011;10049;59.306;18.090;2023-07-20T09:28:41;1.27;;;0.40;;
19778;SDS011;10049;59.306;18.090;2023-07-20T09:31:15;1.45;;;0.50;;
19778;SDS011;10049;59.306;18.090;2023-07-20T09:33:44;0.88;;;0.50;;
19778;SDS011;10049;59.306;18.090;2023-07-20T09:36:13;1.73;;;0.65;;
19778;SDS011;10049;59.306;18.090;2023-07-20T09:38:41;1.20;;;0.50;;
19778;SDS011;10049;59.306;18.090;2023-07-20T09:41:14;2.78;;;0.60;;
19778;SDS011;10049;59.306;18.090;2023-07-20T09:43:44;1.02;;;0.45;;
19778;SDS011;10049;59.306;18.090;2023-07-20T09:46:13;2.00;;;0.60;;
19778;SDS011;10049;59.306;18.090;2023-07-20T09:48:48;2.15;;;0.77;;
19778;SDS011;10049;59.306;18.090;2023-07-20T09:51:21;1.30;;;0.60;;
19778;SDS011;10049;59.306;18.090;2023-07-20T09:53:49;0.70;;;0.60;;
19778;SDS011;10049;59.306;18.090;2023-07-20T09:56:23;1.02;;;0.50;;
19778;SDS011;10049;59.306;18.090;2023-07-20T10:01:39;4.00;;;0.55;;
19778;SDS011;10049;59.306;18.090;2023-07-20T10:04:09;0.82;;;0.50;;
19778;SDS011;10049;59.306;18.090;2023-07-20T10:06:39;1.52;;;0.50;;
19778;SDS011;10049;59.306;18.090;2023-07-20T10:09:14;0.65;;;0.40;;
19778;SDS011;10049;59.306;18.090;2023-07-20T10:11:49;1.55;;;0.50;;
19778;SDS011;10049;59.306;18.090;2023-07-20T10:14:22;1.05;;;0.50;;
19778;SDS011;10049;59.306;18.090;2023-07-20T10:16:50;1.00;;;0.40;;
19778;SDS011;10049;59.306;18.090;2023-07-20T10:19:23;1.00;;;0.40;;
19778;SDS011;10049;59.306;18.090;2023-07-20T10:21:54;0.68;;;0.40;;
19778;SDS011;10049;59.306;18.090;2023-07-20T10:24:23;1.00;;;0.60;;
19778;SDS011;10049;59.306;18.090;2023-07-20T10:26:54;2.40;;;0.50;;
19778;SDS011;10049;59.306;18.090;2023-07-20T10:29:22;0.40;;;0.40;;
19778;SDS011;10049;59.306;18.090;2023-07-20T10:31:53;0.98;;;0.50;;
19778;SDS011;10049;59.306;18.090;2023-07-20T10:34:20;0.52;;;0.30;;
19778;SDS011;10049;59.306;18.090;2023-07-20T10:36:50;1.13;;;0.43;;
19778;SDS011;10049;59.306;18.090;2023-07-20T10:39:22;1.77;;;0.80;;
19778;SDS011;10049;59.306;18.090;2023-07-20T10:42:01;1.15;;;0.50;;
19778;SDS011;10049;59.306;18.090;2023-07-20T10:44:29;0.57;;;0.47;;
19778;SDS011;10049;59.306;18.090;2023-07-20T10:47:01;0.75;;;0.50;;
19778;SDS011;10049;59.306;18.090;2023-07-20T10:49:32;2.83;;;0.50;;
19778;SDS011;10049;59.306;18.090;2023-07-20T10:52:03;2.47;;;0.40;;
19778;SDS011;10049;59.306;18.090;2023-07-20T10:54:46;0.77;;;0.40;;
19778;SDS011;10049;59.306;18.090;2023-07-20T10:57:24;1.17;;;0.60;;
19778;SDS011;10049;59.306;18.090;2023-07-20T10:59:52;1.33;;;0.68;;
19778;SDS011;10049;59.306;18.090;2023-07-20T11:02:41;1.63;;;0.60;;
19778;SDS011;10049;59.306;18.090;2023-07-20T11:07:55;0.93;;;0.60;;
19778;SDS011;10049;59.306;18.090;2023-07-20T11:10:23;3.88;;;0.60;;
19778;SDS011;10049;59.306;18.090;2023-07-20T11:18:23;2.17;;;0.50;;
19778;SDS011;10049;59.306;18.090;2023-07-20T11:20:52;1.25;;;0.63;;
19778;SDS011;10049;59.306;18.090;2023-07-20T11:23:20;0.38;;;0.30;;
19778;SDS011;10049;59.306;18.090;2023-07-20T11:25:48;0.40;;;0.40;;
19778;SDS011;10049;59.306;18.090;2023-07-20T11:28:16;0.32;;;0.30;;
19778;SDS011;10049;59.306;18.090;2023-07-20T11:30:44;1.27;;;0.47;;
19778;SDS011;10049;59.306;18.090;2023-07-20T11:33:12;0.93;;;0.45;;
19778;SDS011;10049;59.306;18.090;2023-07-20T11:35:43;0.57;;;0.50;;
19778;SDS011;10049;59.306;18.090;2023-07-20T11:38:12;2.13;;;0.50;;
19778;SDS011;10049;59.306;18.090;2023-07-20T11:40:44;2.15;;;0.50;;
19778;SDS011;10049;59.306;18.090;2023-07-20T11:43:15;0.73;;;0.40;;
19778;SDS011;10049;59.306;18.090;2023-07-20T11:45:43;0.50;;;0.45;;
19778;SDS011;10049;59.306;18.090;2023-07-20T11:48:14;0.65;;;0.40;;
19778;SDS011;10049;59.306;18.090;2023-07-20T11:50:43;0.43;;;0.43;;
19778;SDS011;10049;59.306;18.090;2023-07-20T11:53:12;0.60;;;0.50;;
19778;SDS011;10049;59.306;18.090;2023-07-20T11:55:45;3.03;;;0.50;;
19778;SDS011;10049;59.306;18.090;2023-07-20T11:58:13;1.95;;;0.40;;
19778;SDS011;10049;59.306;18.090;2023-07-20T12:00:42;0.68;;;0.40;;
19778;SDS011;10049;59.306;18.090;2023-07-20T12:03:12;0.30;;;0.30;;
19778;SDS011;10049;59.306;18.090;2023-07-20T12:05:44;0.60;;;0.50;;
19778;SDS011;10049;59.306;18.090;2023-07-20T12:08:16;2.97;;;0.63;;
19778;SDS011;10049;59.306;18.090;2023-07-20T12:10:44;0.63;;;0.40;;
19778;SDS011;10049;59.306;18.090;2023-07-20T12:13:13;1.30;;;0.40;;
19778;SDS011;10049;59.306;18.090;2023-07-20T12:15:41;1.65;;;0.40;;
19778;SDS011;10049;59.306;18.090;2023-07-20T12:18:11;0.32;;;0.32;;
19778;SDS011;10049;59.306;18.090;2023-07-20T12:20:40;0.35;;;0.30;;
19778;SDS011;10049;59.306;18.090;2023-07-20T12:23:10;0.95;;;0.50;;
19778;SDS011;10049;59.306;18.090;2023-07-20T12:25:39;2.00;;;0.40;;
19778;SDS011;10049;59.306;18.090;2023-07-20T12:28:09;0.50;;;0.50;;
19778;SDS011;10049;59.306;18.090;2023-07-20T12:30:37;0.80;;;0.35;;
19778;SDS011;10049;59.306;18.090;2023-07-20T12:33:07;0.40;;;0.40;;
19778;SDS011;10049;59.306;18.090;2023-07-20T12:35:37;0.95;;;0.50;;
19778;SDS011;10049;59.306;18.090;2023-07-20T12:38:14;0.75;;;0.40;;
19778;SDS011;10049;59.306;18.090;2023-07-20T12:40:47;0.95;;;0.50;;
19778;SDS011;10049;59.306;18.090;2023-07-20T12:43:18;0.40;;;0.40;;
19778;SDS011;10049;59.306;18.090;2023-07-20T12:45:46;1.30;;;0.63;;
19778;SDS011;10049;59.306;18.090;2023-07-20T12:48:20;0.75;;;0.55;;
19778;SDS011;10049;59.306;18.090;2023-07-20T12:50:49;1.27;;;0.40;;
19778;SDS011;10049;59.306;18.090;2023-07-20T12:53:24;2.20;;;0.70;;
19778;SDS011;10049;59.306;18.090;2023-07-20T12:55:53;1.30;;;0.50;;
19778;SDS011;10049;59.306;18.090;2023-07-20T12:58:21;0.47;;;0.40;;
19778;SDS011;10049;59.306;18.090;2023-07-20T13:00:49;1.73;;;0.40;;
19778;SDS011;10049;59.306;18.090;2023-07-20T13:03:17;0.85;;;0.47;;
19778;SDS011;10049;59.306;18.090;2023-07-20T13:05:45;0.35;;;0.30;;
19778;SDS011;10049;59.306;18.090;2023-07-20T13:08:24;0.47;;;0.40;;
19778;SDS011;10049;59.306;18.090;2023-07-20T13:10:54;0.60;;;0.40;;
19778;SDS011;10049;59.306;18.090;2023-07-20T13:13:25;0.70;;;0.30;;
19778;SDS011;10049;59.306;18.090;2023-07-20T13:15:54;0.43;;;0.35;;
19778;SDS011;10049;59.306;18.090;2023-07-20T13:18:22;0.30;;;0.28;;
19778;SDS011;10049;59.306;18.090;2023-07-20T13:20:50;0.30;;;0.30;;
19778;SDS011;10049;59.306;18.090;2023-07-20T13:23:19;0.80;;;0.57;;
19778;SDS011;10049;59.306;18.090;2023-07-20T13:25:55;0.93;;;0.50;;
19778;SDS011;10049;59.306;18.090;2023-07-20T13:28:24;2.85;;;0.43;;
19778;SDS011;10049;59.306;18.090;2023-07-20T13:30:51;1.73;;;0.40;;
19778;SDS011;10049;59.306;18.090;2023-07-20T13:33:31;0.50;;;0.50;;
19778;SDS011;10049;59.306;18.090;2023-07-20T13:35:58;0.60;;;0.38;;
19778;SDS011;10049;59.306;18.090;2023-07-20T13:38:27;1.27;;;0.50;;
19778;SDS011;10049;59.306;18.090;2023-07-20T13:40:57;0.50;;;0.50;;
19778;SDS011;10049;59.306;18.090;2023-07-20T13:43:25;1.98;;;0.50;;
19778;SDS011;10049;59.306;18.090;2023-07-20T13:45:53;0.52;;;0.30;;
19778;SDS011;10049;59.306;18.090;2023-07-20T13:48:21;0.40;;;0.40;;
19778;SDS011;10049;59.306;18.090;2023-07-20T13:50:50;0.50;;;0.50;;
19778;SDS011;10049;59.306;18.090;2023-07-20T13:53:20;0.50;;;0.50;;
19778;SDS011;10049;59.306;18.090;2023-07-20T13:55:49;1.83;;;0.40;;
19778;SDS011;10049;59.306;18.090;2023-07-20T13:58:21;1.15;;;0.40;;
19778;SDS011;10049;59.306;18.090;2023-07-20T14:00:50;0.73;;;0.40;;
19778;SDS011;10049;59.306;18.090;2023-07-20T14:03:20;1.05;;;0.50;;
19778;SDS011;10049;59.306;18.090;2023-07-20T14:05:49;3.40;;;0.45;;
19778;SDS011;10049;59.306;18.090;2023-07-20T14:08:17;0.30;;;0.30;;
19778;SDS011;10049;59.306;18.090;2023-07-20T14:10:45;1.17;;;0.40;;
19778;SDS011;10049;59.306;18.090;2023-07-20T14:13:13;0.80;;;0.50;;
19778;SDS011;10049;59.306;18.090;2023-07-20T14:15:44;1.33;;;0.50;;
19778;SDS011;10049;59.306;18.090;2023-07-20T14:18:12;0.73;;;0.63;;
19778;SDS011;10049;59.306;18.090;2023-07-20T14:20:41;1.13;;;0.47;;
19778;SDS011;10049;59.306;18.090;2023-07-20T14:23:10;0.57;;;0.38;;
19778;SDS011;10049;59.306;18.090;2023-07-20T14:25:37;1.63;;;0.40;;
19778;SDS011;10049;59.306;18.090;2023-07-20T14:28:05;0.55;;;0.40;;
19778;SDS011;10049;59.306;18.090;2023-07-20T14:30:49;0.40;;;0.40;;
19778;SDS011;10049;59.306;18.090;2023-07-20T14:33:19;0.45;;;0.45;;
19778;SDS011;10049;59.306;18.090;2023-07-20T14:35:53;0.40;;;0.40;;
19778;SDS011;10049;59.306;18.090;2023-07-20T14:38:21;0.50;;;0.43;;
19778;SDS011;10049;59.306;18.090;2023-07-20T14:40:51;0.40;;;0.35;;
19778;SDS011;10049;59.306;18.090;2023-07-20T14:43:20;1.55;;;0.47;;
19778;SDS011;10049;59.306;18.090;2023-07-20T14:45:54;1.73;;;0.50;;
19778;SDS011;10049;59.306;18.090;2023-07-20T14:48:22;1.38;;;0.40;;
19778;SDS011;10049;59.306;18.090;2023-07-20T14:50:50;0.70;;;0.52;;
19778;SDS011;10049;59.306;18.090;2023-07-20T14:53:19;0.65;;;0.50;;
19778;SDS011;10049;59.306;18.090;2023-07-20T14:55:53;1.98;;;0.90;;
19778;SDS011;10049;59.306;18.090;2023-07-20T14:58:29;0.70;;;0.50;;
19778;SDS011;10049;59.306;18.090;2023-07-20T15:00:58;1.00;;;0.60;;
19778;SDS011;10049;59.306;18.090;2023-07-20T15:03:28;0.70;;;0.50;;
19778;SDS011;10049;59.306;18.090;2023-07-20T15:05:57;0.93;;;0.50;;
19778;SDS011;10049;59.306;18.090;2023-07-20T15:08:25;1.65;;;0.47;;
19778;SDS011;10049;59.306;18.090;2023-07-20T15:10:53;0.98;;;0.63;;